Time;durP1;ratioP1;P1;durP2;ratioP2;P2;SDS_P1;SDS_P2;PMS_P1;PMS_P2;Temp;Humidity;BMP_temperature;BMP_pressure;BME280_temperature;BME280_humidity;BME280_pressure;Samples;Min_cycle;Max_cycle;Signal;HPM_P1;HPM_P2
2022/08/23 00:08:58;;;;;;;71.88;9.45;;;;;;;24.31;38.67;99990.34;31683468;28;20143;-72
2022/08/23 00:24:00;;;;;;;67.30;8.95;;;;;;;24.23;39.30;100016.34;31689959;28;20039;-72
2022/08/23 00:39:03;;;;;;;88.23;8.20;;;;;;;24.14;39.47;100020.16;31674436;27;20040;-72
2022/08/23 00:54:08;;;;;;;46.60;7.38;;;;;;;24.04;40.08;100032.84;31708638;27;20059;-72
2022/08/23 01:09:15;;;;;;;69.38;9.35;;;;;;;23.91;40.68;100036.16;31667638;27;20056;-72
2022/08/23 01:24:18;;;;;;;59.05;9.60;;;;;;;23.77;40.92;100038.00;31666124;27;20051;-71
2022/08/23 01:39:39;;;;;;;53.30;8.40;;;;;;;23.62;41.38;100025.75;31667852;27;20443;-73
2022/08/23 01:54:42;;;;;;;44.27;7.97;;;;;;;23.38;41.70;100035.38;31656788;27;20055;-72
2022/08/23 02:09:44;;;;;;;38.93;6.57;;;;;;;23.12;42.28;100040.47;31670168;28;20052;-71
2022/08/23 02:24:47;;;;;;;50.10;6.73;;;;;;;22.84;42.67;100048.06;31673191;27;20050;-70
2022/08/23 02:39:48;;;;;;;;;;;;;;;22.60;43.53;100068.66;31686712;27;20043;-72
2022/08/23 02:54:50;;;;;;;35.22;5.55;;;;;;;22.38;43.94;100074.16;31688292;27;20014;-72
2022/08/23 03:09:58;;;;;;;28.50;4.60;;;;;;;22.25;43.66;100080.16;31665223;28;20052;-71
2022/08/23 03:25:00;;;;;;;27.80;5.07;;;;;;;22.24;43.83;100097.22;31683662;28;20524;-73
2022/08/23 03:40:05;;;;;;;26.35;3.55;;;;;;;22.37;43.21;100108.59;31670876;28;20389;-72
2022/08/23 03:55:08;;;;;;;21.58;3.33;;;;;;;22.63;42.80;100117.44;31689619;27;20120;-72
2022/08/23 04:10:13;;;;;;;21.85;4.43;;;;;;;22.92;41.64;100104.38;31683903;27;20067;-71
2022/08/23 04:25:15;;;;;;;19.27;4.32;;;;;;;23.40;41.41;100127.00;31718361;27;20059;-72
2022/08/23 04:56:01;;;;;;;24.67;5.38;;;;;;;24.34;39.56;100152.19;31660315;28;20051;-71
2022/08/23 05:11:05;;;;;;;13.73;4.70;;;;;;;24.81;38.53;100175.13;31670012;27;20055;-72
2022/08/23 05:26:10;;;;;;;18.15;5.03;;;;;;;25.36;37.17;100171.19;31663267;28;20374;-72
2022/08/23 05:41:14;;;;;;;14.32;2.92;;;;;;;25.89;36.90;100180.03;31678127;27;20409;-72
2022/08/23 05:56:22;;;;;;;17.63;2.75;;;;;;;26.52;35.74;100178.75;31678280;27;20048;-73
2022/08/23 06:11:27;;;;;;;11.35;2.65;;;;;;;26.81;34.23;100182.66;31691037;27;20404;-74
2022/08/23 06:26:37;;;;;;;18.08;2.88;;;;;;;27.75;33.61;100199.13;31678232;27;20098;-72
2022/08/23 06:41:39;;;;;;;9.48;3.00;;;;;;;28.34;33.22;100203.31;31666599;27;20131;-72
2022/08/23 06:56:42;;;;;;;9.07;2.38;;;;;;;29.17;31.32;100208.31;31667121;27;20060;-72
2022/08/23 07:11:44;;;;;;;11.23;2.35;;;;;;;29.59;30.00;100225.06;31688624;27;20062;-74
2022/08/23 07:26:48;;;;;;;13.93;1.90;;;;;;;30.03;28.65;100240.69;31645519;27;20078;-76
2022/08/23 07:41:51;;;;;;;12.02;1.98;;;;;;;30.38;27.43;100280.47;31679245;28;20058;-72
2022/08/23 07:56:53;;;;;;;9.55;1.58;;;;;;;30.37;26.57;100256.56;31641753;28;20474;-71
2022/08/23 08:11:55;;;;;;;6.75;2.15;;;;;;;30.94;26.85;100245.22;31686857;28;20059;-82
2022/08/23 08:26:57;;;;;;;8.00;1.67;;;;;;;31.30;25.89;100248.63;31702825;28;20039;-82
2022/08/23 08:42:08;;;;;;;8.57;1.55;;;;;;;32.00;25.19;100278.94;31668647;27;20048;-86
2022/08/23 08:57:14;;;;;;;13.30;2.15;;;;;;;32.33;24.85;100257.34;31687546;27;20168;-80
2022/08/23 09:12:27;;;;;;;8.00;2.50;;;;;;;32.92;23.71;100273.03;31692831;27;20052;-74
2022/08/23 09:27:29;;;;;;;9.07;2.30;;;;;;;33.17;23.55;100237.25;31689567;27;20143;-73
2022/08/23 09:42:36;;;;;;;22.00;3.13;;;;;;;33.81;24.01;100252.50;31714140;27;20553;-83
2022/08/23 09:57:38;;;;;;;5.75;1.75;;;;;;;33.74;23.06;100270.22;31685685;27;20058;-74
2022/08/23 10:12:40;;;;;;;7.10;2.13;;;;;;;34.46;23.19;100252.22;31669977;27;20063;-71
2022/08/23 10:43:42;;;;;;;10.00;2.08;;;;;;;34.63;22.16;100271.91;31685179;27;20134;-71
2022/08/23 10:58:51;;;;;;;6.03;2.67;;;;;;;35.11;21.65;100248.88;31665515;28;20047;-72
2022/08/23 11:13:53;;;;;;;8.02;2.05;;;;;;;35.43;21.38;100270.41;31646750;27;20048;-72
2022/08/23 11:29:22;;;;;;;8.25;2.03;;;;;;;35.47;21.67;100236.84;31688282;28;20047;-71
2022/08/23 11:44:53;;;;;;;8.45;1.88;;;;;;;34.62;21.84;100214.03;31683644;28;20082;-71
2022/08/23 11:59:57;;;;;;;6.25;1.67;;;;;;;33.98;23.16;100215.94;31659896;28;20055;-72
2022/08/23 12:15:05;;;;;;;10.07;2.13;;;;;;;33.11;23.32;100231.09;31689013;27;20055;-72
2022/08/23 12:30:09;;;;;;;7.18;2.03;;;;;;;32.78;23.29;100208.66;31711402;27;20054;-70
2022/08/23 12:45:19;;;;;;;7.78;1.77;;;;;;;32.54;24.52;100201.63;31671607;27;20444;-73
2022/08/23 13:00:32;;;;;;;6.73;2.37;;;;;;;32.64;23.71;100215.81;31683919;27;20063;-73
2022/08/23 13:15:54;;;;;;;10.70;2.20;;;;;;;32.60;24.00;100204.22;31700220;27;20395;-73
2022/08/23 13:31:05;;;;;;;3.97;2.58;;;;;;;32.45;24.55;100195.88;31693969;27;20381;-73
2022/08/23 13:46:19;;;;;;;7.68;2.22;;;;;;;32.39;25.55;100209.38;31662929;27;20553;-74
2022/08/23 14:01:24;;;;;;;7.90;2.22;;;;;;;32.29;25.29;100197.25;31657672;27;20056;-74
2022/08/23 14:16:36;;;;;;;11.68;2.50;;;;;;;32.10;25.69;100192.81;31679671;28;20060;-74
2022/08/23 14:31:41;;;;;;;8.48;2.42;;;;;;;31.92;26.22;100199.59;31697747;27;20496;-74
2022/08/23 14:46:43;;;;;;;8.00;2.35;;;;;;;31.79;26.32;100199.81;31683047;27;20055;-82
2022/08/23 15:01:48;;;;;;;7.32;2.40;;;;;;;31.61;27.24;100203.75;31689473;28;20052;-80
2022/08/23 15:16:50;;;;;;;9.18;2.92;;;;;;;31.48;27.64;100190.66;31675973;27;20048;-77
2022/08/23 15:31:53;;;;;;;8.27;2.83;;;;;;;31.28;28.54;100195.16;31694162;28;20082;-82
2022/08/23 15:46:58;;;;;;;8.18;2.80;;;;;;;30.94;29.52;100200.38;31666544;27;20039;-73
2022/08/23 16:02:00;;;;;;;7.05;2.65;;;;;;;30.65;29.96;100206.09;31680051;27;20469;-72
2022/08/23 16:17:03;;;;;;;4.57;2.60;;;;;;;30.35;30.73;100225.56;31662973;27;20048;-71
2022/08/23 16:32:07;;;;;;;6.50;3.20;;;;;;;29.97;32.04;100226.09;31667640;27;20066;-71
2022/08/23 16:47:11;;;;;;;9.82;3.08;;;;;;;29.66;32.32;100235.56;31678457;27;20052;-72
2022/08/23 17:02:29;;;;;;;34.20;27.45;;;;;;;29.40;33.05;100242.84;31677769;27;20056;-73
2022/08/23 17:17:32;;;;;;;10.77;3.20;;;;;;;29.15;32.58;100264.00;31682466;27;20538;-73
2022/08/23 17:32:34;;;;;;;6.65;3.00;;;;;;;28.93;33.14;100270.84;31670501;28;20051;-74
2022/08/23 17:47:36;;;;;;;6.55;3.50;;;;;;;28.73;33.60;100277.88;31694907;27;20059;-73
2022/08/23 18:02:38;;;;;;;9.63;3.53;;;;;;;28.61;33.82;100276.59;31665007;27;20052;-73
2022/08/23 18:17:39;;;;;;;4.50;3.30;;;;;;;28.52;33.70;100279.84;31668895;28;20054;-71
2022/08/23 18:32:42;;;;;;;10.73;3.53;;;;;;;28.26;34.66;100265.91;31696658;27;20079;-73
2022/08/23 18:47:44;;;;;;;7.53;3.72;;;;;;;28.05;35.16;100268.56;31673113;27;20051;-72
2022/08/23 19:02:46;;;;;;;14.13;5.82;;;;;;;27.90;34.99;100269.06;31705520;27;20066;-73
2022/08/23 19:17:48;;;;;;;12.25;4.40;;;;;;;27.75;35.10;100277.22;31655968;28;20130;-72
2022/08/23 19:32:50;;;;;;;11.95;4.22;;;;;;;27.58;35.24;100271.94;31657406;28;20048;-73
2022/08/23 19:47:53;;;;;;;7.35;3.78;;;;;;;27.46;35.42;100268.53;31666881;28;20489;-73
2022/08/23 20:02:55;;;;;;;7.00;3.58;;;;;;;27.39;35.21;100274.75;31677438;28;20780;-73
2022/08/23 20:17:57;;;;;;;5.57;3.10;;;;;;;27.27;34.88;100256.69;31673936;28;20492;-71
2022/08/23 20:32:59;;;;;;;4.78;3.10;;;;;;;27.18;34.70;100259.84;31656362;27;20505;-72
2022/08/23 20:48:02;;;;;;;6.47;2.70;;;;;;;27.03;35.02;100273.50;31666059;28;20120;-71
2022/08/23 21:03:09;;;;;;;6.88;3.20;;;;;;;27.04;34.39;100266.66;31692921;28;20446;-71
2022/08/23 21:18:10;;;;;;;7.53;2.97;;;;;;;26.96;34.53;100255.38;31668281;27;20059;-73
2022/08/23 21:33:13;;;;;;;11.52;3.65;;;;;;;26.77;34.90;100272.06;31689901;27;20413;-70
2022/08/23 21:48:15;;;;;;;11.80;3.95;;;;;;;26.55;34.82;100277.94;31689312;27;20063;-70
2022/08/23 22:03:17;;;;;;;7.40;2.97;;;;;;;26.22;35.38;100283.88;31677888;27;20063;-71
2022/08/23 22:18:19;;;;;;;6.10;2.83;;;;;;;25.90;36.06;100287.22;31696650;27;20051;-72
2022/08/23 22:33:21;;;;;;;9.05;3.00;;;;;;;25.63;36.69;100269.50;31701076;27;20509;-72
2022/08/23 22:48:25;;;;;;;13.18;4.03;;;;;;;25.37;37.16;100283.09;31693281;27;20048;-71
2022/08/23 23:03:27;;;;;;;9.38;2.95;;;;;;;25.18;37.17;100296.84;31665165;27;20059;-72
2022/08/23 23:18:29;;;;;;;9.35;3.15;;;;;;;25.04;37.45;100298.69;31641510;27;20051;-71
2022/08/23 23:33:32;;;;;;;13.95;3.25;;;;;;;24.89;37.50;100308.59;31670690;28;20500;-71
2022/08/23 23:48:34;;;;;;;14.90;3.33;;;;;;;24.71;37.86;100310.72;31676076;28;20531;-71
